createdAt,value
2018-09-26T00:02:28.222Z,89.67
2018-09-26T00:04:58.735Z,89.75
2018-09-26T00:07:28.861Z,89.71
2018-09-26T00:09:59.201Z,90.58
2018-09-26T00:12:29.335Z,90.40
2018-09-26T00:14:59.971Z,90.72
2018-09-26T00:17:30.281Z,90.75
2018-09-26T00:20:01.351Z,91.19
2018-09-26T00:22:31.320Z,91.30
2018-09-26T00:25:01.479Z,91.31
2018-09-26T00:27:32.088Z,91.51
2018-09-26T00:30:02.100Z,91.17
2018-09-26T00:32:32.212Z,91.29
2018-09-26T00:35:02.552Z,91.49
2018-09-26T00:37:33.300Z,91.82
2018-09-26T00:40:03.241Z,90.98
2018-09-26T00:42:33.219Z,90.98
2018-09-26T00:45:03.369Z,90.90
2018-09-26T00:47:33.345Z,91.14
2018-09-26T00:50:03.506Z,91.18
2018-09-26T00:52:33.466Z,90.04
2018-09-26T00:55:03.903Z,89.80
2018-09-26T00:57:34.964Z,90.50
2018-09-26T01:00:05.414Z,89.97
2018-09-26T01:02:35.473Z,90.66
2018-09-26T01:05:05.559Z,90.73
2018-09-26T01:07:35.678Z,90.71
2018-09-26T01:10:06.602Z,91.05
2018-09-26T01:12:36.486Z,90.51
2018-09-26T01:15:06.714Z,90.46
2018-09-26T01:17:36.654Z,90.18
2018-09-26T01:20:07.205Z,90.51
2018-09-26T01:22:37.183Z,91.18
2018-09-26T01:25:08.659Z,91.34
2018-09-26T01:27:38.521Z,90.85
2018-09-26T01:30:09.318Z,91.46
2018-09-26T01:32:39.217Z,91.06
2018-09-26T01:35:09.686Z,91.05
2018-09-26T01:37:39.748Z,90.92
2018-09-26T01:40:09.863Z,90.70
2018-09-26T01:42:39.700Z,90.75
2018-09-26T01:45:09.666Z,91.24
2018-09-26T01:47:39.579Z,90.98
2018-09-26T01:50:09.924Z,90.81
2018-09-26T01:52:39.725Z,90.84
2018-09-26T01:55:09.973Z,90.94
2018-09-26T01:57:39.954Z,90.38
2018-09-26T02:00:10.126Z,90.17
2018-09-26T02:02:39.910Z,89.88
2018-09-26T02:05:09.971Z,90.34
2018-09-26T02:07:40.542Z,90.39
2018-09-26T02:10:10.739Z,90.27
2018-09-26T02:12:41.454Z,90.93
2018-09-26T02:15:11.669Z,91.28
2018-09-26T02:17:41.483Z,90.62
2018-09-26T02:20:11.511Z,91.13
2018-09-26T02:22:41.462Z,90.30
2018-09-26T02:25:11.996Z,90.07
2018-09-26T02:27:42.257Z,90.59
2018-09-26T02:30:12.709Z,90.60
2018-09-26T02:32:42.851Z,90.68
2018-09-26T02:35:13.068Z,91.09
2018-09-26T02:37:42.775Z,90.80
2018-09-26T02:40:12.737Z,91.21
2018-09-26T02:42:42.718Z,91.13
2018-09-26T02:45:13.179Z,91.22
2018-09-26T02:47:42.996Z,91.01
2018-09-26T02:50:13.494Z,91.08
2018-09-26T02:52:43.381Z,91.37
2018-09-26T02:55:13.564Z,91.42
2018-09-26T02:57:43.570Z,90.76
2018-09-26T03:00:13.458Z,90.77
2018-09-26T03:02:43.412Z,90.60
2018-09-26T03:05:13.927Z,90.91
2018-09-26T03:07:43.634Z,90.23
2018-09-26T03:10:13.474Z,90.28
2018-09-26T03:12:43.503Z,90.70
2018-09-26T03:15:13.562Z,90.86
2018-09-26T03:17:44.674Z,91.15
2018-09-26T03:20:15.572Z,90.26
2018-09-26T03:22:45.611Z,90.51
2018-09-26T03:25:15.703Z,91.28
2018-09-26T03:27:45.549Z,91.40
2018-09-26T03:30:15.569Z,91.53
2018-09-26T03:32:52.767Z,91.16
2018-09-26T03:35:24.529Z,91.76
2018-09-26T03:37:59.608Z,91.36
2018-09-26T03:40:33.973Z,91.85
2018-09-26T03:43:03.860Z,92.43
2018-09-26T03:45:33.641Z,92.02
2018-09-26T03:48:03.701Z,92.60
2018-09-26T03:50:33.784Z,92.55
2018-09-26T03:53:04.159Z,92.17
2018-09-26T03:55:34.258Z,92.27
2018-09-26T03:58:04.318Z,92.60
2018-09-26T04:00:34.337Z,92.23
2018-09-26T04:03:04.177Z,91.88
2018-09-26T04:05:34.484Z,91.77
2018-09-26T04:08:04.413Z,91.95
2018-09-26T04:10:34.276Z,92.12
2018-09-26T04:13:04.391Z,92.07
2018-09-26T04:15:38.432Z,92.10
2018-09-26T04:18:08.916Z,91.67
2018-09-26T04:20:39.575Z,91.37
2018-09-26T04:23:09.625Z,91.67
2018-09-26T04:25:39.761Z,91.08
2018-09-26T04:28:10.491Z,91.39
2018-09-26T04:30:40.597Z,91.26
2018-09-26T04:33:11.137Z,91.68
2018-09-26T04:35:40.974Z,91.44
2018-09-26T04:38:11.632Z,91.76
2018-09-26T04:40:41.759Z,91.22
2018-09-26T04:43:11.868Z,90.97
2018-09-26T04:45:41.991Z,91.14
2018-09-26T04:48:11.807Z,90.77
2018-09-26T04:50:41.832Z,91.25
2018-09-26T04:53:11.844Z,91.90
2018-09-26T04:55:42.037Z,91.85
2018-09-26T04:58:12.151Z,92.07
2018-09-26T05:00:42.442Z,92.09
2018-09-26T05:03:12.307Z,91.38
2018-09-26T05:05:42.477Z,91.31
2018-09-26T05:08:12.697Z,91.16
2018-09-26T05:10:42.769Z,91.29
2018-09-26T05:13:12.840Z,91.13
2018-09-26T05:15:43.016Z,91.49
2018-09-26T05:18:13.027Z,91.82
2018-09-26T05:20:43.151Z,91.29
2018-09-26T05:23:13.048Z,91.12
2018-09-26T05:25:42.857Z,91.40
2018-09-26T05:28:12.716Z,91.98
2018-09-26T05:30:43.036Z,92.12
2018-09-26T05:33:12.872Z,91.95
2018-09-26T05:35:42.896Z,91.98
2018-09-26T05:38:12.815Z,92.77
2018-09-26T05:40:42.983Z,92.79
2018-09-26T05:43:13.218Z,92.87
2018-09-26T05:45:44.211Z,92.29
2018-09-26T05:48:14.146Z,92.70
2018-09-26T05:50:44.345Z,93.16
2018-09-26T05:53:14.485Z,92.64
2018-09-26T05:55:45.447Z,92.74
2018-09-26T05:58:15.549Z,93.08
2018-09-26T06:00:45.629Z,93.32
2018-09-26T06:03:16.495Z,93.25
2018-09-26T06:06:00.518Z,92.91
2018-09-26T06:08:36.258Z,92.72
2018-09-26T06:11:07.261Z,93.35
2018-09-26T06:13:37.230Z,93.09
2018-09-26T06:16:07.540Z,93.48
2018-09-26T06:21:59.519Z,93.13
2018-09-26T06:24:42.516Z,93.23
2018-09-26T06:28:21.723Z,92.78
2018-09-26T06:30:56.062Z,93.13
2018-09-26T06:33:27.324Z,93.10
2018-09-26T06:36:01.440Z,93.29
2018-09-26T06:38:49.181Z,93.19
2018-09-26T06:41:19.520Z,93.20
2018-09-26T06:43:50.868Z,93.29
2018-09-26T06:46:21.962Z,92.94
2018-09-26T06:48:54.061Z,93.15
2018-09-26T06:51:25.200Z,93.39
2018-09-26T06:54:07.764Z,92.93
2018-09-26T06:56:38.064Z,93.14
2018-09-26T06:59:11.472Z,93.37
2018-09-26T07:01:41.907Z,93.56
2018-09-26T07:04:20.844Z,93.22
2018-09-26T07:06:55.684Z,92.52
2018-09-26T07:09:29.768Z,91.71
2018-09-26T07:12:02.310Z,90.78
2018-09-26T07:14:42.305Z,89.43
2018-09-26T07:17:13.124Z,90.00
2018-09-26T07:32:54.101Z,77.56
2018-09-26T07:35:46.633Z,83.44
2018-09-26T07:38:35.149Z,79.28
2018-09-26T07:50:09.034Z,84.35
2018-09-26T07:52:56.243Z,85.10
2018-09-26T08:00:31.893Z,81.95
2018-09-26T08:06:00.592Z,65.67
2018-09-26T08:08:41.121Z,75.88
2018-09-26T08:20:16.174Z,56.26
2018-09-26T08:22:46.898Z,65.48
2018-09-26T08:25:59.913Z,57.44
2018-09-26T08:31:57.185Z,49.55
2018-09-26T08:34:47.090Z,57.50
2018-09-26T08:43:28.157Z,50.17
2018-09-26T08:46:39.953Z,50.10
2018-09-26T08:49:18.661Z,47.95
2018-09-26T08:54:43.878Z,45.33
2018-09-26T08:57:14.813Z,45.00
2018-09-26T08:59:45.155Z,46.73
2018-09-26T09:02:15.514Z,45.80
2018-09-26T09:04:46.333Z,46.33
2018-09-26T09:07:18.591Z,46.29
2018-09-26T09:09:48.789Z,43.00
2018-09-26T09:12:19.907Z,46.24
2018-09-26T09:14:50.161Z,45.58
2018-09-26T09:17:21.332Z,45.85
2018-09-26T09:19:53.363Z,40.66
2018-09-26T09:22:23.640Z,43.02
2018-09-26T09:24:56.199Z,46.23
2018-09-26T09:27:26.694Z,41.92
2018-09-26T09:29:57.854Z,41.93
2018-09-26T09:32:37.211Z,44.42
2018-09-26T09:35:07.595Z,41.42
2018-09-26T09:37:37.921Z,42.00
2018-09-26T09:40:08.501Z,41.65
2018-09-26T09:42:39.054Z,38.34
2018-09-26T09:45:09.404Z,40.09
2018-09-26T09:47:39.871Z,41.89
2018-09-26T09:50:11.520Z,38.47
2018-09-26T09:52:42.701Z,39.37
2018-09-26T09:55:12.806Z,36.74
2018-09-26T09:57:45.079Z,39.61
2018-09-26T10:00:16.500Z,39.24
2018-09-26T10:02:52.091Z,40.27
2018-09-26T10:05:22.759Z,36.94
2018-09-26T10:07:53.083Z,38.76
2018-09-26T10:10:24.466Z,39.33
2018-09-26T10:12:56.816Z,40.29
2018-09-26T10:15:28.052Z,37.83
2018-09-26T10:17:58.252Z,37.58
2018-09-26T10:20:29.037Z,36.90
2018-09-26T10:23:21.967Z,37.79
2018-09-26T10:28:40.169Z,35.95
2018-09-26T10:31:14.222Z,38.29
2018-09-26T10:33:44.580Z,35.24
2018-09-26T10:36:16.651Z,36.28
2018-09-26T10:38:46.925Z,36.93
2018-09-26T10:41:17.932Z,32.38
2018-09-26T10:46:50.578Z,37.88
2018-09-26T10:49:22.960Z,33.21
2018-09-26T10:55:03.837Z,36.36
2018-09-26T10:57:34.037Z,33.64
2018-09-26T11:00:44.081Z,36.62
2018-09-26T11:03:26.619Z,36.14
2018-09-26T11:06:30.022Z,37.05
2018-09-26T11:09:08.201Z,33.96
2018-09-26T11:29:40.046Z,35.09
2018-09-26T11:32:10.764Z,33.92
2018-09-26T11:34:45.959Z,32.92
2018-09-26T11:37:20.220Z,34.11
2018-09-26T11:39:50.890Z,33.11
2018-09-26T11:42:21.298Z,31.49
2018-09-26T11:44:53.165Z,33.78
2018-09-26T11:47:23.591Z,30.02
2018-09-26T11:49:54.523Z,30.59
2018-09-26T11:52:33.847Z,31.65
2018-09-26T11:55:05.883Z,30.30
2018-09-26T11:57:36.310Z,30.99
2018-09-26T12:00:13.943Z,29.04
2018-09-26T12:02:45.336Z,31.93
2018-09-26T12:07:58.452Z,31.38
2018-09-26T12:10:29.852Z,27.46
2018-09-26T12:13:02.671Z,28.99
2018-09-26T12:15:33.931Z,32.54
2018-09-26T12:18:04.389Z,31.65
2018-09-26T12:20:34.915Z,32.35
2018-09-26T12:23:05.552Z,34.16
2018-09-26T12:25:39.534Z,35.13
2018-09-26T12:28:10.629Z,33.59
2018-09-26T12:30:42.143Z,34.38
2018-09-26T12:33:12.600Z,34.19
2018-09-26T12:35:42.897Z,35.05
2018-09-26T12:38:13.066Z,33.88
2018-09-26T12:40:43.389Z,34.50
2018-09-26T12:43:13.881Z,33.54
2018-09-26T12:45:44.002Z,33.99
2018-09-26T12:48:14.505Z,35.55
2018-09-26T12:53:25.437Z,35.89
2018-09-26T12:55:55.714Z,33.46
2018-09-26T12:58:26.342Z,32.56
2018-09-26T13:00:57.475Z,33.27
2018-09-26T13:03:59.581Z,36.83
2018-09-26T13:06:40.931Z,33.21
2018-09-26T13:28:00.158Z,32.67
2018-09-26T13:36:10.116Z,35.47
2018-09-26T13:58:53.707Z,33.53
2018-09-26T14:01:45.635Z,33.83
2018-09-26T14:10:57.653Z,36.28
2018-09-26T14:16:33.580Z,34.37
2018-09-26T14:19:04.384Z,36.65
2018-09-26T14:21:36.422Z,39.48
2018-09-26T14:24:10.422Z,37.04
2018-09-26T14:26:40.664Z,35.48
2018-09-26T14:29:12.256Z,35.41
2018-09-26T14:31:42.497Z,35.62
2018-09-26T14:34:13.064Z,34.99
2018-09-26T14:36:43.815Z,35.82
2018-09-26T14:39:14.803Z,35.50
2018-09-26T14:41:44.859Z,37.03
2018-09-26T14:44:15.025Z,37.23
2018-09-26T14:46:45.350Z,35.40
2018-09-26T14:49:17.450Z,36.82
2018-09-26T14:51:47.951Z,37.67
2018-09-26T14:54:18.651Z,36.97
2018-09-26T14:56:49.054Z,37.17
2018-09-26T14:59:19.509Z,40.04
2018-09-26T15:01:49.971Z,38.50
2018-09-26T15:04:20.689Z,38.70
2018-09-26T15:06:50.831Z,39.36
2018-09-26T15:09:21.271Z,38.87
2018-09-26T15:11:51.859Z,39.02
2018-09-26T15:14:23.594Z,38.44
2018-09-26T15:16:53.730Z,40.28
2018-09-26T15:19:23.908Z,38.99
2018-09-26T15:21:54.689Z,40.10
2018-09-26T15:24:25.013Z,43.36
2018-09-26T15:26:56.828Z,40.66
2018-09-26T15:29:27.009Z,41.31
2018-09-26T15:32:04.017Z,40.63
2018-09-26T16:14:47.103Z,62.64
2018-09-26T16:20:09.635Z,65.52
2018-09-26T16:22:47.196Z,66.78
2018-09-26T16:25:23.273Z,67.66
2018-09-26T16:27:59.105Z,69.92
2018-09-26T16:30:31.175Z,69.73
2018-09-26T16:33:02.405Z,70.71
2018-09-26T16:35:33.882Z,71.81
2018-09-26T16:38:04.388Z,73.48
2018-09-26T16:40:35.686Z,72.65
2018-09-26T16:43:06.746Z,73.11
2018-09-26T17:00:15.553Z,78.72
2018-09-26T17:02:49.156Z,78.75
2018-09-26T17:05:19.435Z,80.18
2018-09-26T17:11:26.020Z,81.00
2018-09-26T17:13:57.689Z,81.39
2018-09-26T17:16:28.732Z,81.54
2018-09-26T17:18:59.138Z,81.61
2018-09-26T17:21:30.911Z,82.25
2018-09-26T17:24:01.451Z,83.42
2018-09-26T17:26:31.733Z,83.32
2018-09-26T17:29:04.580Z,83.18
2018-09-26T17:31:35.104Z,83.47
2018-09-26T17:34:05.380Z,84.45
2018-09-26T17:36:38.413Z,84.17
2018-09-26T17:39:10.324Z,84.36
2018-09-26T17:41:46.680Z,84.74
2018-09-26T17:44:17.065Z,85.39
2018-09-26T17:47:02.353Z,85.42
2018-09-26T17:49:32.596Z,85.03
2018-09-26T17:52:03.735Z,84.48
2018-09-26T17:54:37.637Z,84.83
2018-09-26T17:57:08.057Z,85.68
2018-09-26T17:59:38.407Z,85.73
2018-09-26T18:02:09.332Z,86.45
2018-09-26T18:04:39.877Z,86.56
2018-09-26T18:07:10.131Z,86.81
2018-09-26T18:09:50.914Z,86.96
2018-09-26T18:15:05.273Z,86.52
2018-09-26T18:17:36.591Z,87.31
2018-09-26T18:20:06.749Z,87.44
2018-09-26T18:22:42.217Z,87.51
2018-09-26T18:25:16.976Z,87.40
2018-09-26T18:27:47.116Z,86.87
2018-09-26T18:30:17.496Z,87.12
2018-09-26T18:32:47.872Z,87.62
2018-09-26T18:35:18.962Z,87.28
2018-09-26T18:37:49.383Z,87.21
2018-09-26T18:40:19.693Z,87.32
2018-09-26T18:42:50.330Z,87.23
2018-09-26T18:45:21.467Z,87.13
2018-09-26T18:47:52.741Z,87.90
2018-09-26T18:50:23.708Z,87.72
2018-09-26T18:52:53.854Z,87.91
2018-09-26T18:55:27.019Z,87.63
2018-09-26T18:57:57.654Z,87.42
2018-09-26T19:03:16.870Z,87.42
2018-09-26T19:05:47.290Z,87.75
2018-09-26T19:08:20.902Z,88.04
2018-09-26T19:10:52.819Z,87.98
2018-09-26T19:13:24.318Z,88.14
2018-09-26T19:15:58.174Z,88.07
2018-09-26T19:18:30.324Z,88.17
2018-09-26T19:21:01.837Z,88.97
2018-09-26T19:23:31.832Z,89.08
2018-09-26T19:26:02.560Z,88.94
2018-09-26T19:28:32.676Z,88.79
2018-09-26T19:31:02.909Z,88.92
2018-09-26T19:33:33.615Z,88.83
2018-09-26T19:36:05.859Z,88.61
2018-09-26T19:38:36.190Z,88.58
2018-09-26T19:41:06.696Z,88.73
2018-09-26T19:43:38.436Z,89.31
2018-09-26T19:46:12.857Z,89.52
2018-09-26T19:48:50.853Z,89.94
2018-09-26T19:51:22.496Z,90.28
2018-09-26T19:53:56.649Z,90.56
2018-09-26T19:56:28.166Z,90.50
2018-09-26T19:58:59.512Z,91.01
2018-09-26T20:01:31.142Z,91.22
2018-09-26T20:04:01.370Z,91.21
2018-09-26T20:06:31.589Z,91.21
2018-09-26T20:11:52.374Z,90.74
2018-09-26T20:14:23.570Z,91.02
2018-09-26T20:16:53.762Z,90.73
2018-09-26T20:19:24.097Z,90.75
2018-09-26T20:21:54.288Z,90.62
2018-09-26T20:24:24.384Z,90.40
2018-09-26T20:26:54.816Z,90.61
2018-09-26T20:29:25.152Z,90.66
2018-09-26T20:31:55.802Z,90.67
2018-09-26T20:34:26.741Z,90.55
2018-09-26T20:36:57.016Z,90.74
2018-09-26T20:39:26.999Z,90.75
2018-09-26T20:41:57.577Z,90.47
2018-09-26T20:44:27.868Z,90.78
2018-09-26T20:46:57.988Z,91.09
2018-09-26T20:49:28.209Z,91.04
2018-09-26T20:51:58.997Z,91.22
2018-09-26T20:54:29.014Z,91.02
2018-09-26T20:56:59.171Z,91.04
2018-09-26T20:59:29.991Z,91.60
2018-09-26T21:02:00.357Z,91.51
2018-09-26T21:04:30.410Z,91.43
2018-09-26T21:07:00.658Z,91.85
2018-09-26T21:09:30.660Z,91.43
2018-09-26T21:12:00.881Z,91.45
2018-09-26T21:14:30.793Z,91.22
2018-09-26T21:17:00.807Z,91.30
2018-09-26T21:19:30.752Z,91.47
2018-09-26T21:22:01.328Z,91.57
2018-09-26T21:24:31.380Z,92.22
2018-09-26T21:27:01.773Z,91.40
2018-09-26T21:29:32.033Z,91.50
2018-09-26T21:32:02.211Z,91.46
2018-09-26T21:34:32.197Z,91.25
2018-09-26T21:37:02.681Z,91.33
2018-09-26T21:39:32.674Z,91.20
2018-09-26T21:42:02.896Z,91.21
2018-09-26T21:44:33.281Z,90.90
2018-09-26T21:47:03.464Z,91.05
2018-09-26T21:49:34.272Z,90.72
2018-09-26T21:52:04.820Z,90.80
2018-09-26T21:54:34.842Z,90.47
2018-09-26T21:57:05.627Z,90.71
2018-09-26T21:59:35.672Z,90.25
2018-09-26T22:02:05.821Z,90.21
2018-09-26T22:04:36.279Z,89.93
2018-09-26T22:07:06.418Z,90.27
2018-09-26T22:09:36.597Z,90.48
2018-09-26T22:12:06.674Z,90.08
2018-09-26T22:14:36.740Z,90.33
2018-09-26T22:17:06.799Z,90.41
2018-09-26T22:19:37.543Z,90.18
2018-09-26T22:22:07.567Z,89.52
2018-09-26T22:24:37.653Z,89.91
2018-09-26T22:27:07.791Z,89.83
2018-09-26T22:29:37.788Z,90.13
2018-09-26T22:32:08.342Z,90.11
2018-09-26T22:34:39.114Z,90.23
2018-09-26T22:37:09.506Z,90.86
2018-09-26T22:39:39.712Z,90.65
2018-09-26T22:42:09.788Z,90.71
2018-09-26T22:44:39.698Z,90.73
2018-09-26T22:47:09.768Z,90.68
2018-09-26T22:49:39.751Z,90.70
2018-09-26T22:52:10.150Z,91.06
2018-09-26T22:54:40.116Z,90.84
2018-09-26T22:57:10.160Z,91.01
2018-09-26T22:59:40.055Z,91.19
2018-09-26T23:02:10.228Z,91.15
2018-09-26T23:04:40.120Z,91.11
2018-09-26T23:07:10.248Z,91.04
2018-09-26T23:09:40.351Z,90.56
2018-09-26T23:12:10.530Z,90.64
2018-09-26T23:14:40.418Z,90.39
2018-09-26T23:17:10.562Z,90.94
2018-09-26T23:19:40.473Z,90.88
2018-09-26T23:22:10.521Z,91.61
2018-09-26T23:24:40.448Z,91.59
2018-09-26T23:27:10.668Z,91.64
2018-09-26T23:29:40.656Z,91.02
2018-09-26T23:32:10.888Z,91.28
2018-09-26T23:34:40.991Z,90.92
2018-09-26T23:37:11.175Z,91.32
2018-09-26T23:39:40.963Z,91.25
2018-09-26T23:42:10.891Z,91.23
2018-09-26T23:44:40.974Z,91.57
2018-09-26T23:47:11.228Z,91.94
2018-09-26T23:49:41.284Z,91.57
2018-09-26T23:52:11.461Z,91.86
2018-09-26T23:54:41.471Z,91.37
2018-09-26T23:57:11.545Z,91.35
2018-09-26T23:59:41.446Z,92.24
